Time;durP1;ratioP1;P1;durP2;ratioP2;P2;SDS_P1;SDS_P2;PMS_P1;PMS_P2;Temp;Humidity;BMP_temperature;BMP_pressure;BME280_temperature;BME280_humidity;BME280_pressure;Samples;Min_cycle;Max_cycle;Signal;HPM_P1;HPM_P2
2022/05/07 00:02:09;;;;;;;8.70;7.90;;;10.90;99.90;;;;;;4955805;28;20802;-67
2022/05/07 00:04:36;;;;;;;8.33;7.53;;;10.80;99.90;;;;;;4960372;28;20439;-67
2022/05/07 00:07:06;;;;;;;9.13;7.60;;;10.70;99.90;;;;;;4962141;28;20457;-67
2022/05/07 00:09:33;;;;;;;9.47;8.57;;;10.70;99.90;;;;;;4952329;28;20547;-66
2022/05/07 00:11:58;;;;;;;9.20;7.77;;;10.70;99.90;;;;;;4953892;28;20962;-66
2022/05/07 00:14:24;;;;;;;8.20;7.40;;;10.70;99.90;;;;;;4955761;28;20439;-66
2022/05/07 00:19:34;;;;;;;8.77;7.70;;;10.60;99.90;;;;;;4951312;28;20215;-67
2022/05/07 00:22:00;;;;;;;9.57;8.17;;;10.60;99.90;;;;;;4954405;28;20440;-67
2022/05/07 00:24:26;;;;;;;9.30;8.40;;;10.50;99.90;;;;;;4960374;28;20216;-67
2022/05/07 00:26:51;;;;;;;7.13;6.53;;;10.50;99.90;;;;;;4952424;28;20567;-68
2022/05/07 00:29:17;;;;;;;8.73;7.93;;;10.50;99.90;;;;;;4953704;28;20220;-66
2022/05/07 00:31:43;;;;;;;9.20;7.60;;;10.50;99.90;;;;;;4954422;28;20212;-66
2022/05/07 00:34:08;;;;;;;7.80;7.03;;;10.50;99.90;;;;;;4953889;28;20179;-67
2022/05/07 00:36:34;;;;;;;7.67;6.97;;;10.50;99.90;;;;;;4953913;28;20180;-68
2022/05/07 00:38:59;;;;;;;7.83;7.13;;;10.40;99.90;;;;;;4953832;28;20204;-66
2022/05/07 00:41:25;;;;;;;7.77;7.03;;;10.40;99.90;;;;;;4953707;28;20558;-66
2022/05/07 00:43:51;;;;;;;8.30;7.20;;;10.30;99.90;;;;;;4953411;28;20193;-66
2022/05/07 00:46:16;;;;;;;9.37;8.30;;;10.20;99.90;;;;;;4953584;28;20192;-67
2022/05/07 00:48:43;;;;;;;8.43;7.67;;;10.30;99.90;;;;;;4952851;28;20205;-67
2022/05/07 00:53:54;;;;;;;8.00;7.17;;;10.10;99.90;;;;;;4951340;28;20452;-67
2022/05/07 00:56:19;;;;;;;7.17;6.57;;;10.10;99.90;;;;;;4953560;28;20429;-65
2022/05/07 00:58:45;;;;;;;15.43;7.30;;;10.10;99.90;;;;;;4953327;28;20707;-66
2022/05/07 01:01:10;;;;;;;8.27;7.23;;;10.10;99.90;;;;;;4953388;28;20213;-66
2022/05/07 01:03:38;;;;;;;7.63;6.93;;;10.10;99.90;;;;;;4953785;28;20251;-70
2022/05/07 01:06:04;;;;;;;7.63;6.83;;;10.10;99.90;;;;;;4954318;28;20172;-67
2022/05/07 01:08:33;;;;;;;9.40;7.30;;;10.10;99.90;;;;;;4952999;28;20475;-66
2022/05/07 01:10:59;;;;;;;8.13;7.33;;;10.10;99.90;;;;;;4953054;28;21105;-66
2022/05/07 01:13:25;;;;;;;8.17;7.20;;;10.10;99.90;;;;;;4952478;28;20453;-67
2022/05/07 01:15:55;;;;;;;8.23;7.43;;;10.00;99.90;;;;;;4952442;28;20448;-66
2022/05/07 01:18:21;;;;;;;9.40;8.63;;;10.00;99.90;;;;;;4952757;28;20267;-67
2022/05/07 01:20:46;;;;;;;8.80;7.87;;;10.00;99.90;;;;;;4953163;28;20440;-67
2022/05/07 01:23:12;;;;;;;8.87;8.03;;;10.00;99.90;;;;;;4952398;28;20495;-68
2022/05/07 01:25:38;;;;;;;7.57;6.87;;;10.00;99.90;;;;;;4949695;28;20177;-66
2022/05/07 01:28:04;;;;;;;8.23;7.43;;;10.00;99.90;;;;;;4952951;28;20219;-66
2022/05/07 01:30:30;;;;;;;8.57;7.77;;;9.90;99.90;;;;;;4952635;28;20188;-66
2022/05/07 01:32:55;;;;;;;8.17;7.37;;;9.90;99.90;;;;;;4952638;28;20436;-67
2022/05/07 01:35:21;;;;;;;7.67;6.93;;;9.80;99.90;;;;;;4952224;28;20177;-68
2022/05/07 01:37:46;;;;;;;8.30;7.23;;;9.70;99.90;;;;;;4952429;28;20238;-67
2022/05/07 01:40:12;;;;;;;9.53;7.83;;;9.70;99.90;;;;;;4952119;28;20176;-67
2022/05/07 01:42:39;;;;;;;8.17;7.33;;;9.70;99.90;;;;;;4953302;28;20212;-67
2022/05/07 01:45:05;;;;;;;8.40;7.50;;;9.70;99.90;;;;;;4937554;29;20589;-66
2022/05/07 01:50:15;;;;;;;8.33;7.53;;;9.70;99.90;;;;;;4952394;28;20503;-67
2022/05/07 01:52:40;;;;;;;11.10;7.83;;;9.60;99.90;;;;;;4952269;28;20472;-67
2022/05/07 01:55:06;;;;;;;7.97;7.27;;;9.60;99.90;;;;;;4952752;28;20192;-66
2022/05/07 01:57:32;;;;;;;7.90;7.20;;;9.50;99.90;;;;;;4951450;28;20176;-69
2022/05/07 01:59:57;;;;;;;7.43;6.73;;;9.50;99.90;;;;;;4952375;28;20189;-67
2022/05/07 02:02:23;;;;;;;8.20;7.40;;;9.50;99.90;;;;;;4952645;28;20192;-67
2022/05/07 02:04:48;;;;;;;10.73;7.83;;;9.50;99.90;;;;;;4952459;28;20180;-66
2022/05/07 02:07:14;;;;;;;8.40;7.60;;;9.50;99.90;;;;;;4955444;28;20436;-67
2022/05/07 02:09:39;;;;;;;7.70;7.00;;;9.50;99.90;;;;;;4939593;28;20212;-68
2022/05/07 02:12:05;;;;;;;13.23;7.70;;;9.50;99.90;;;;;;4954609;28;20173;-66
2022/05/07 02:14:32;;;;;;;7.40;6.77;;;9.40;99.90;;;;;;4953622;28;20188;-66
2022/05/07 02:16:58;;;;;;;8.50;7.57;;;9.40;99.90;;;;;;4951775;28;20519;-67
2022/05/07 02:19:23;;;;;;;9.30;7.70;;;9.40;99.90;;;;;;4952504;28;20493;-67
2022/05/07 02:21:49;;;;;;;7.63;6.67;;;9.40;99.90;;;;;;4950435;28;20295;-67
2022/05/07 02:24:15;;;;;;;7.60;6.93;;;9.40;99.90;;;;;;4936286;29;20188;-66
2022/05/07 02:26:41;;;;;;;8.10;7.47;;;9.40;99.90;;;;;;4952611;28;20181;-66
2022/05/07 02:29:06;;;;;;;8.37;7.53;;;9.40;99.90;;;;;;4935130;29;20232;-67
2022/05/07 02:31:32;;;;;;;6.83;6.13;;;9.40;99.90;;;;;;4952103;28;20476;-67
2022/05/07 02:33:57;;;;;;;9.60;6.97;;;9.30;99.90;;;;;;4952061;28;20177;-66
2022/05/07 02:36:23;;;;;;;8.60;7.70;;;9.30;99.90;;;;;;4952897;28;20191;-66
2022/05/07 02:38:48;;;;;;;8.30;7.50;;;9.40;99.90;;;;;;4951606;28;20208;-71
2022/05/07 02:43:58;;;;;;;7.70;7.00;;;9.30;99.90;;;;;;4956020;28;20256;-66
2022/05/07 02:46:23;;;;;;;8.30;7.50;;;9.30;99.90;;;;;;4951105;28;20901;-67
2022/05/07 02:48:49;;;;;;;7.60;6.90;;;9.20;99.90;;;;;;4955806;28;20216;-67
2022/05/07 02:51:15;;;;;;;9.30;6.93;;;9.20;99.90;;;;;;4955078;28;20264;-65
2022/05/07 02:53:40;;;;;;;9.47;7.00;;;9.20;99.90;;;;;;4956229;28;20188;-66
2022/05/07 02:56:06;;;;;;;7.77;7.00;;;9.10;99.90;;;;;;4954345;28;20185;-68
2022/05/07 02:58:32;;;;;;;8.50;7.57;;;9.10;99.90;;;;;;4938821;29;20201;-68
2022/05/07 03:00:58;;;;;;;7.70;6.90;;;9.10;99.90;;;;;;4955406;28;20444;-67
2022/05/07 03:03:24;;;;;;;7.87;7.17;;;9.10;99.90;;;;;;4955010;28;20672;-67
2022/05/07 03:05:49;;;;;;;7.27;6.57;;;9.10;99.90;;;;;;4954764;28;20189;-67
2022/05/07 03:08:15;;;;;;;9.53;7.70;;;9.10;99.90;;;;;;4954750;28;20212;-67
2022/05/07 03:10:40;;;;;;;7.87;7.10;;;9.10;99.90;;;;;;4959105;28;20192;-67
2022/05/07 03:13:06;;;;;;;7.37;6.67;;;9.00;99.90;;;;;;4955892;28;20183;-68
2022/05/07 03:15:32;;;;;;;7.77;7.07;;;9.00;99.90;;;;;;4955567;28;20661;-67
2022/05/07 03:17:58;;;;;;;8.60;6.80;;;9.00;99.90;;;;;;4954654;28;20211;-67
2022/05/07 03:20:23;;;;;;;11.43;6.63;;;9.00;99.90;;;;;;4955074;28;20448;-67
2022/05/07 03:22:49;;;;;;;7.73;7.10;;;8.90;99.90;;;;;;4955254;28;20204;-67
2022/05/07 03:25:14;;;;;;;6.57;5.97;;;8.90;99.90;;;;;;4955091;28;20176;-67
2022/05/07 03:27:40;;;;;;;6.50;5.60;;;8.90;99.90;;;;;;4934252;29;20250;-67
2022/05/07 03:30:09;;;;;;;8.40;7.27;;;8.90;99.90;;;;;;4953119;28;20336;-68
2022/05/07 03:32:35;;;;;;;8.07;7.27;;;8.90;99.90;;;;;;4955498;28;20987;-67
2022/05/07 03:35:02;;;;;;;8.67;7.57;;;8.80;99.90;;;;;;4954635;28;20452;-67
2022/05/07 03:37:28;;;;;;;7.93;7.13;;;8.80;99.90;;;;;;4958160;28;20440;-67
2022/05/07 03:39:54;;;;;;;8.20;7.50;;;8.70;99.90;;;;;;4954412;28;20874;-68
2022/05/07 03:42:20;;;;;;;8.73;8.00;;;8.70;99.90;;;;;;4955482;28;20217;-67
2022/05/07 03:44:48;;;;;;;7.80;7.00;;;8.70;99.90;;;;;;4953821;28;20476;-68
2022/05/07 03:47:14;;;;;;;7.97;7.27;;;8.70;99.90;;;;;;4955249;28;20263;-67
2022/05/07 03:49:40;;;;;;;11.77;7.60;;;8.70;99.90;;;;;;4953751;28;21009;-67
2022/05/07 03:54:50;;;;;;;8.50;7.37;;;8.70;99.90;;;;;;4955255;28;20191;-67
2022/05/07 03:57:16;;;;;;;9.30;8.40;;;8.70;99.90;;;;;;4953759;28;20523;-67
2022/05/07 03:59:42;;;;;;;7.33;6.47;;;8.70;99.90;;;;;;4953821;28;20189;-68
2022/05/07 04:02:08;;;;;;;11.80;10.10;;;8.60;99.90;;;;;;4953982;28;20185;-67
2022/05/07 04:04:35;;;;;;;8.43;7.60;;;8.50;99.90;;;;;;4957213;28;20443;-67
2022/05/07 04:07:01;;;;;;;8.50;7.67;;;8.60;99.90;;;;;;4962488;28;20440;-68
2022/05/07 04:09:26;;;;;;;7.90;7.20;;;8.60;99.90;;;;;;4954891;29;20460;-68
2022/05/07 04:11:52;;;;;;;10.00;8.97;;;8.60;99.90;;;;;;4937316;28;20436;-67
2022/05/07 04:14:18;;;;;;;8.43;7.73;;;8.70;99.90;;;;;;4954079;28;20647;-67
2022/05/07 04:16:44;;;;;;;8.03;7.23;;;8.70;99.90;;;;;;4953706;28;20559;-68
2022/05/07 04:19:11;;;;;;;8.43;7.63;;;8.80;99.90;;;;;;4957114;28;20201;-67
2022/05/07 04:21:38;;;;;;;7.67;6.87;;;8.90;99.90;;;;;;4954017;28;20634;-67
2022/05/07 04:24:04;;;;;;;7.93;7.27;;;8.80;99.90;;;;;;4951101;28;20444;-67
2022/05/07 04:26:30;;;;;;;8.90;8.00;;;8.80;99.90;;;;;;4960619;28;20440;-67
2022/05/07 04:28:55;;;;;;;11.97;7.80;;;8.90;99.90;;;;;;4952678;28;20480;-68
2022/05/07 04:31:21;;;;;;;8.63;7.37;;;8.90;99.90;;;;;;4956655;28;20191;-67
2022/05/07 04:33:46;;;;;;;8.40;7.70;;;9.00;99.90;;;;;;4954237;28;20631;-67
2022/05/07 04:36:12;;;;;;;8.37;7.03;;;9.10;99.90;;;;;;4953757;28;20185;-67
2022/05/07 04:38:37;;;;;;;6.90;6.30;;;9.20;99.90;;;;;;4953237;28;20223;-67
2022/05/07 04:41:03;;;;;;;8.73;7.00;;;9.20;99.90;;;;;;4953656;28;20185;-68
2022/05/07 04:43:28;;;;;;;8.27;7.13;;;9.30;99.90;;;;;;4953566;28;20554;-67
2022/05/07 04:45:54;;;;;;;9.27;8.40;;;9.40;99.90;;;;;;4953656;28;20489;-69
2022/05/07 04:48:20;;;;;;;8.00;7.07;;;9.60;99.90;;;;;;4952398;28;20197;-69
2022/05/07 04:50:45;;;;;;;8.87;7.77;;;9.70;99.90;;;;;;4952495;28;20185;-69
2022/05/07 04:53:11;;;;;;;8.40;7.57;;;9.80;99.90;;;;;;4953353;28;20181;-69
2022/05/07 04:55:36;;;;;;;10.57;9.47;;;9.80;99.90;;;;;;4953176;28;20181;-69
2022/05/07 04:58:02;;;;;;;7.97;6.83;;;9.90;99.90;;;;;;4952659;28;20200;-69
2022/05/07 05:00:28;;;;;;;10.33;7.53;;;10.00;99.90;;;;;;4952377;28;20193;-69
2022/05/07 05:02:54;;;;;;;8.53;6.90;;;10.20;99.90;;;;;;4953823;28;20551;-69
2022/05/07 05:05:19;;;;;;;7.93;7.13;;;10.40;99.90;;;;;;4952887;28;20271;-69
2022/05/07 05:07:44;;;;;;;7.37;6.70;;;10.50;99.90;;;;;;4960269;28;20558;-69
2022/05/07 05:10:11;;;;;;;8.40;6.20;;;10.70;99.90;;;;;;4952454;28;20209;-69
2022/05/07 05:12:36;;;;;;;8.23;7.50;;;10.80;99.90;;;;;;4953320;28;20185;-69
2022/05/07 05:15:06;;;;;;;7.73;7.03;;;10.90;99.90;;;;;;4953770;28;20447;-69
2022/05/07 05:17:33;;;;;;;7.73;7.03;;;11.10;99.90;;;;;;4952634;28;20181;-69
2022/05/07 05:20:00;;;;;;;7.67;7.03;;;11.30;99.90;;;;;;4952495;28;20440;-69
2022/05/07 05:22:26;;;;;;;9.40;8.43;;;11.50;99.90;;;;;;4952314;28;20448;-69
2022/05/07 05:24:52;;;;;;;8.60;7.50;;;11.70;99.90;;;;;;4953112;28;20446;-69
2022/05/07 05:27:18;;;;;;;11.80;7.40;;;12.00;99.90;;;;;;4953964;28;20270;-69
2022/05/07 05:29:44;;;;;;;6.80;6.30;;;12.10;99.90;;;;;;4952006;28;20630;-69
2022/05/07 05:32:09;;;;;;;8.80;7.40;;;12.20;99.90;;;;;;4954624;28;20992;-69
2022/05/07 05:34:35;;;;;;;8.23;7.53;;;12.30;99.90;;;;;;4953399;28;20606;-69
2022/05/07 05:37:00;;;;;;;9.23;7.37;;;12.40;99.90;;;;;;4953030;28;20177;-70
2022/05/07 05:39:26;;;;;;;9.13;7.60;;;12.60;99.90;;;;;;4952027;28;20208;-69
2022/05/07 05:41:51;;;;;;;7.00;6.30;;;12.70;99.90;;;;;;4953314;28;20244;-69
2022/05/07 05:44:17;;;;;;;10.00;9.03;;;12.80;99.90;;;;;;4953263;28;20188;-69
2022/05/07 05:46:42;;;;;;;7.13;6.53;;;13.10;99.90;;;;;;4952942;28;20710;-69
2022/05/07 05:49:08;;;;;;;9.97;8.30;;;13.30;99.90;;;;;;4951407;28;20205;-69
2022/05/07 05:51:34;;;;;;;13.57;9.03;;;13.50;99.90;;;;;;4950444;28;20259;-69
2022/05/07 05:53:59;;;;;;;8.43;7.63;;;13.70;99.90;;;;;;4952393;28;20177;-70
2022/05/07 05:56:25;;;;;;;9.50;7.67;;;13.70;99.90;;;;;;4952461;28;20268;-67
2022/05/07 05:58:50;;;;;;;8.87;8.03;;;13.80;99.90;;;;;;4951650;28;20636;-67
2022/05/07 06:01:16;;;;;;;15.67;9.13;;;14.00;99.90;;;;;;4952384;28;20173;-69
2022/05/07 06:03:42;;;;;;;11.40;9.07;;;14.30;99.90;;;;;;4951822;28;20185;-69
2022/05/07 06:06:07;;;;;;;11.03;9.03;;;14.40;99.90;;;;;;4952169;28;20189;-67
2022/05/07 06:08:33;;;;;;;9.80;8.87;;;14.50;99.90;;;;;;4956093;28;20264;-69
2022/05/07 06:10:58;;;;;;;10.00;7.77;;;14.70;99.90;;;;;;4952962;28;20682;-69
2022/05/07 06:13:25;;;;;;;9.20;7.67;;;14.90;99.90;;;;;;4953633;28;20722;-69
2022/05/07 06:15:51;;;;;;;11.47;8.23;;;15.10;99.90;;;;;;4952571;28;20185;-67
2022/05/07 06:18:20;;;;;;;9.83;8.90;;;15.20;99.90;;;;;;4955133;28;20561;-69
2022/05/07 06:20:47;;;;;;;8.57;7.77;;;15.20;99.90;;;;;;4956484;28;20575;-69
2022/05/07 06:23:13;;;;;;;10.20;9.30;;;15.30;99.90;;;;;;4955743;28;20438;-67
2022/05/07 06:28:25;;;;;;;8.77;7.83;;;15.70;99.90;;;;;;4953091;28;20215;-69
2022/05/07 06:30:51;;;;;;;8.27;7.50;;;15.90;99.90;;;;;;4956543;28;20535;-69
2022/05/07 06:33:17;;;;;;;8.53;7.77;;;15.90;99.90;;;;;;4955854;28;20580;-67
2022/05/07 06:35:43;;;;;;;8.50;7.80;;;15.80;99.90;;;;;;4960873;28;20192;-69
2022/05/07 06:38:09;;;;;;;9.60;8.77;;;15.90;99.90;;;;;;4956151;28;20460;-67
2022/05/07 06:40:37;;;;;;;9.97;9.00;;;16.00;99.90;;;;;;4955473;28;20311;-67
2022/05/07 06:43:03;;;;;;;10.17;9.17;;;16.00;99.90;;;;;;4953160;28;20946;-67
2022/05/07 06:45:28;;;;;;;8.60;7.80;;;16.10;99.90;;;;;;4955747;28;20441;-69
2022/05/07 06:47:54;;;;;;;10.07;9.17;;;16.00;99.90;;;;;;4954817;28;20211;-67
2022/05/07 06:50:20;;;;;;;12.43;10.43;;;16.00;99.90;;;;;;4954647;28;20201;-67
2022/05/07 06:52:46;;;;;;;9.60;8.70;;;16.20;99.90;;;;;;4955429;28;20650;-66
2022/05/07 06:55:16;;;;;;;9.10;8.30;;;16.50;99.90;;;;;;4955704;28;20179;-67
2022/05/07 06:57:42;;;;;;;8.60;8.00;;;16.80;99.90;;;;;;4955042;28;20534;-67
2022/05/07 07:00:11;;;;;;;9.53;8.60;;;16.90;99.90;;;;;;4955359;28;20440;-67
2022/05/07 07:02:38;;;;;;;8.83;8.13;;;17.10;99.90;;;;;;4955161;28;20539;-69
2022/05/07 07:05:04;;;;;;;8.93;7.40;;;17.50;99.90;;;;;;4935688;28;20445;-69
2022/05/07 07:07:31;;;;;;;9.93;8.20;;;17.60;99.90;;;;;;4962070;28;20445;-69
2022/05/07 07:09:57;;;;;;;8.50;7.50;;;17.80;99.90;;;;;;4955128;28;20474;-69
2022/05/07 07:12:22;;;;;;;11.10;9.30;;;17.80;99.90;;;;;;4956085;28;20551;-69
2022/05/07 07:14:49;;;;;;;10.07;9.23;;;18.00;99.90;;;;;;4955398;28;20516;-69
2022/05/07 07:17:18;;;;;;;10.00;9.10;;;18.20;99.90;;;;;;4955028;28;20331;-69
2022/05/07 07:19:44;;;;;;;9.87;8.13;;;18.30;99.90;;;;;;4953243;28;20444;-69
2022/05/07 07:22:11;;;;;;;7.70;7.10;;;18.40;99.90;;;;;;4951041;28;20869;-69
2022/05/07 07:24:36;;;;;;;10.47;9.57;;;18.40;99.90;;;;;;4954395;28;20436;-69
2022/05/07 07:27:06;;;;;;;12.47;11.43;;;18.60;99.90;;;;;;4953985;28;20459;-69
2022/05/07 07:29:33;;;;;;;15.93;14.43;;;18.80;99.90;;;;;;4954098;28;20200;-69
2022/05/07 07:31:58;;;;;;;17.07;15.57;;;19.00;99.90;;;;;;4954789;28;20811;-69
2022/05/07 07:34:24;;;;;;;18.03;16.00;;;19.00;99.90;;;;;;4954526;28;20436;-69
2022/05/07 07:36:53;;;;;;;15.63;14.17;;;19.00;99.90;;;;;;4955578;28;20185;-69
2022/05/07 07:39:19;;;;;;;10.90;10.00;;;19.10;99.90;;;;;;4954186;28;20201;-69
2022/05/07 07:41:45;;;;;;;10.87;9.83;;;19.30;99.90;;;;;;4956058;28;20998;-70
2022/05/07 07:44:11;;;;;;;9.77;8.97;;;19.50;99.90;;;;;;4955242;28;20460;-70
2022/05/07 07:49:21;;;;;;;10.83;9.93;;;19.70;99.90;;;;;;4954818;28;20717;-70
2022/05/07 07:51:46;;;;;;;11.20;10.17;;;19.80;99.70;;;;;;4953979;28;20523;-70
2022/05/07 07:54:14;;;;;;;9.17;8.37;;;19.80;99.90;;;;;;4954471;28;20231;-70
2022/05/07 07:56:39;;;;;;;9.93;9.00;;;19.80;99.30;;;;;;4955706;28;20176;-70
2022/05/07 07:59:05;;;;;;;9.87;9.00;;;19.90;99.40;;;;;;4946861;28;20527;-70
2022/05/07 08:01:31;;;;;;;10.73;9.70;;;20.20;99.60;;;;;;4955598;29;20465;-70
2022/05/07 08:03:56;;;;;;;11.93;10.80;;;20.40;99.00;;;;;;4953829;28;20447;-68
2022/05/07 08:06:22;;;;;;;12.20;11.00;;;20.60;98.40;;;;;;4954673;28;20181;-70
2022/05/07 08:11:40;;;;;;;22.43;20.43;;;20.70;98.00;;;;;;4955297;29;20188;-70
2022/05/07 08:14:07;;;;;;;11.37;10.47;;;20.70;98.30;;;;;;4955031;28;20861;-70
2022/05/07 08:16:34;;;;;;;11.50;10.60;;;20.70;98.40;;;;;;4953748;28;20444;-70
2022/05/07 08:19:00;;;;;;;10.50;9.60;;;21.00;98.40;;;;;;4951304;28;20602;-70
2022/05/07 08:21:26;;;;;;;12.97;11.87;;;21.30;98.10;;;;;;4954243;28;20441;-71
2022/05/07 08:23:52;;;;;;;12.40;11.10;;;21.50;97.10;;;;;;4953118;28;20814;-68
2022/05/07 08:26:18;;;;;;;14.03;12.83;;;21.50;96.30;;;;;;4954104;28;20539;-68
2022/05/07 08:28:43;;;;;;;12.03;10.93;;;21.50;96.30;;;;;;4952780;28;20917;-68
2022/05/07 08:31:12;;;;;;;13.10;11.87;;;21.60;96.40;;;;;;4952962;28;20176;-69
2022/05/07 08:33:41;;;;;;;13.43;12.33;;;21.70;95.70;;;;;;4953859;28;20181;-69
2022/05/07 08:36:07;;;;;;;14.77;12.50;;;21.80;95.00;;;;;;4953744;28;20432;-69
2022/05/07 08:38:33;;;;;;;14.50;13.07;;;21.90;95.00;;;;;;4951805;28;20473;-69
2022/05/07 08:41:02;;;;;;;15.30;14.00;;;21.80;95.10;;;;;;4952856;28;20444;-69
2022/05/07 08:43:39;;;;;;;13.97;12.77;;;21.90;94.50;;;;;;4953582;28;20441;-69
2022/05/07 08:46:16;;;;;;;12.17;11.07;;;22.20;93.80;;;;;;4953563;28;20466;-69
2022/05/07 08:48:45;;;;;;;13.40;12.30;;;22.70;94.00;;;;;;4951714;28;20463;-69
2022/05/07 08:51:13;;;;;;;12.53;11.33;;;23.00;92.70;;;;;;4952961;28;21028;-69
2022/05/07 08:53:39;;;;;;;13.80;12.37;;;23.10;92.30;;;;;;4953772;28;20935;-69
2022/05/07 08:56:05;;;;;;;13.43;12.37;;;23.20;91.30;;;;;;4953830;28;20464;-69
2022/05/07 08:58:30;;;;;;;13.67;12.50;;;23.30;91.40;;;;;;4951019;28;20688;-69
2022/05/07 09:00:57;;;;;;;13.90;12.70;;;23.60;91.10;;;;;;4953299;28;20443;-69
2022/05/07 09:03:24;;;;;;;13.63;12.30;;;23.70;88.70;;;;;;4952672;28;20298;-69
2022/05/07 09:05:49;;;;;;;13.97;12.87;;;23.40;89.20;;;;;;4953835;28;20475;-69
2022/05/07 09:08:15;;;;;;;12.30;11.40;;;23.40;89.70;;;;;;4952434;28;20522;-69
2022/05/07 09:10:41;;;;;;;15.00;13.80;;;23.70;87.50;;;;;;4953024;28;20189;-69
2022/05/07 09:13:08;;;;;;;14.87;13.37;;;23.90;85.80;;;;;;4954764;28;20605;-69
2022/05/07 09:15:47;;;;;;;15.17;14.00;;;23.90;85.30;;;;;;4955124;28;20801;-69
2022/05/07 09:18:14;;;;;;;12.97;11.93;;;23.60;85.10;;;;;;4951894;28;20487;-69
2022/05/07 09:20:40;;;;;;;10.60;9.80;;;23.60;84.10;;;;;;4946325;28;20441;-69
2022/05/07 09:23:05;;;;;;;11.00;9.97;;;23.50;81.60;;;;;;4952416;28;20479;-69
2022/05/07 09:25:31;;;;;;;11.83;10.90;;;23.90;82.40;;;;;;4953108;28;20188;-69
2022/05/07 09:27:57;;;;;;;10.60;9.80;;;24.40;80.50;;;;;;4951916;28;20216;-69
2022/05/07 09:30:25;;;;;;;9.03;8.33;;;24.80;80.70;;;;;;4963083;28;20204;-69
2022/05/07 09:32:52;;;;;;;9.43;8.53;;;24.70;75.10;;;;;;4953392;28;20487;-69
2022/05/07 09:38:04;;;;;;;9.20;8.57;;;25.10;71.70;;;;;;4950094;28;20459;-69
2022/05/07 09:40:31;;;;;;;9.53;7.70;;;25.30;70.00;;;;;;4943037;28;20444;-69
2022/05/07 09:42:57;;;;;;;8.13;7.43;;;25.60;70.20;;;;;;4949993;28;20568;-69
2022/05/07 09:45:30;;;;;;;8.13;7.43;;;26.40;68.40;;;;;;4948792;29;20519;-69
2022/05/07 09:47:57;;;;;;;7.37;6.77;;;26.40;63.10;;;;;;4952700;28;20460;-69
2022/05/07 09:50:24;;;;;;;6.90;6.43;;;26.30;63.00;;;;;;4952426;28;20465;-69
2022/05/07 09:58:20;;;;;;;6.73;6.13;;;28.20;56.30;;;;;;4944881;28;20479;-70
2022/05/07 10:01:09;;;;;;;4.90;4.50;;;28.50;54.10;;;;;;4945318;28;20449;-70
2022/05/07 10:03:47;;;;;;;3.90;3.30;;;28.70;52.40;;;;;;4945643;28;20931;-69
2022/05/07 10:06:42;;;;;;;3.77;3.57;;;28.50;49.90;;;;;;4953257;28;20534;-70
2022/05/07 10:09:38;;;;;;;4.43;4.03;;;28.90;47.80;;;;;;4952645;28;20547;-70
2022/05/07 10:12:05;;;;;;;4.93;4.63;;;29.50;48.30;;;;;;4946230;29;20783;-70
2022/05/07 10:14:31;;;;;;;6.10;4.93;;;29.10;45.50;;;;;;4945861;28;20782;-70
2022/05/07 10:17:11;;;;;;;6.43;5.93;;;28.80;46.70;;;;;;4949779;28;20508;-70
2022/05/07 10:19:42;;;;;;;3.40;3.20;;;30.10;46.40;;;;;;4950017;29;20447;-70
2022/05/07 10:22:23;;;;;;;3.97;3.00;;;30.40;43.10;;;;;;4948612;28;20554;-70
2022/05/07 10:25:04;;;;;;;5.23;3.87;;;30.30;41.80;;;;;;4951578;28;20434;-70
2022/05/07 10:27:31;;;;;;;3.60;3.40;;;30.60;41.90;;;;;;4942565;29;20449;-70
2022/05/07 10:30:04;;;;;;;2.50;2.20;;;30.40;42.50;;;;;;4951602;28;20503;-70
2022/05/07 10:32:32;;;;;;;4.00;3.70;;;;;;;;;;4945027;28;20800;-70
2022/05/07 10:34:58;;;;;;;3.50;2.73;;;31.70;37.60;;;;;;4942525;28;20433;-70
2022/05/07 10:37:23;;;;;;;3.50;3.20;;;32.30;38.70;;;;;;4947792;28;20470;-71
2022/05/07 10:39:51;;;;;;;3.20;2.90;;;33.40;37.40;;;;;;4945072;29;20651;-71
2022/05/07 10:42:18;;;;;;;4.97;3.37;;;34.40;36.00;;;;;;4947376;28;20206;-70
2022/05/07 10:44:44;;;;;;;5.47;4.00;;;35.40;35.00;;;;;;4949434;28;20432;-71
2022/05/07 10:47:11;;;;;;;4.13;3.07;;;35.50;35.00;;;;;;4950203;28;20496;-70
2022/05/07 10:50:08;;;;;;;4.60;3.00;;;35.60;34.20;;;;;;4963455;28;20262;-71
2022/05/07 10:52:35;;;;;;;3.83;3.53;;;35.50;34.00;;;;;;4945309;28;20531;-70
2022/05/07 10:55:04;;;;;;;4.33;3.73;;;34.40;33.30;;;;;;4953121;29;20512;-70
2022/05/07 10:57:47;;;;;;;4.30;3.90;;;32.20;35.30;;;;;;4944734;28;20470;-70
2022/05/07 11:00:16;;;;;;;4.70;4.20;;;30.50;36.80;;;;;;4940680;28;20496;-70
2022/05/07 11:02:42;;;;;;;4.30;4.00;;;31.10;36.50;;;;;;4945335;28;20428;-70
2022/05/07 11:05:08;;;;;;;3.90;3.70;;;32.20;35.70;;;;;;4955849;28;20515;-71
2022/05/07 11:07:34;;;;;;;4.33;3.93;;;33.40;34.80;;;;;;4954050;28;20527;-71
2022/05/07 11:09:59;;;;;;;4.23;3.63;;;35.10;33.40;;;;;;4957191;28;20212;-71
2022/05/07 11:12:26;;;;;;;4.10;3.80;;;35.20;33.10;;;;;;4948325;28;20185;-70
2022/05/07 11:14:52;;;;;;;4.60;4.30;;;33.00;34.40;;;;;;4954131;28;20236;-70
2022/05/07 11:17:28;;;;;;;4.47;4.17;;;31.10;35.90;;;;;;4949777;28;20867;-70
2022/05/07 11:19:54;;;;;;;4.50;3.93;;;30.90;37.30;;;;;;4953482;28;20467;-70
2022/05/07 11:22:24;;;;;;;8.23;3.90;;;31.90;36.60;;;;;;4950056;28;20448;-70
2022/05/07 11:24:57;;;;;;;4.40;4.00;;;33.70;35.20;;;;;;4954270;28;20705;-70
2022/05/07 11:27:29;;;;;;;4.90;4.27;;;33.50;35.50;;;;;;4948053;28;20447;-70
2022/05/07 11:29:54;;;;;;;4.47;4.07;;;32.10;35.50;;;;;;4948998;28;20817;-70
2022/05/07 11:32:21;;;;;;;4.00;3.63;;;30.50;37.90;;;;;;4952013;28;20501;-70
2022/05/07 11:34:46;;;;;;;5.20;4.80;;;30.60;38.30;;;;;;4954102;28;20192;-70
2022/05/07 11:37:18;;;;;;;5.43;3.93;;;32.20;37.50;;;;;;4951076;28;20801;-70
2022/05/07 11:39:57;;;;;;;8.97;6.83;;;33.70;36.20;;;;;;4947824;28;20693;-70
2022/05/07 11:42:43;;;;;;;4.67;4.37;;;34.60;34.90;;;;;;4954642;28;20440;-70
2022/05/07 11:45:26;;;;;;;3.97;3.70;;;34.60;34.10;;;;;;4954195;28;20970;-70
2022/05/07 11:48:11;;;;;;;6.67;3.40;;;34.60;34.60;;;;;;4955204;28;20464;-70
2022/05/07 11:50:54;;;;;;;5.30;4.03;;;34.00;34.10;;;;;;4948094;29;20455;-70
2022/05/07 11:53:26;;;;;;;5.03;3.80;;;33.10;34.80;;;;;;4954780;29;20810;-70
2022/05/07 11:55:51;;;;;;;4.63;3.70;;;33.20;34.80;;;;;;4954502;29;20956;-70
2022/05/07 11:58:22;;;;;;;7.33;3.63;;;32.50;34.00;;;;;;4952724;28;20468;-70
2022/05/07 12:00:49;;;;;;;3.70;3.40;;;30.90;35.20;;;;;;4953459;29;20632;-70
2022/05/07 12:03:25;;;;;;;4.20;3.80;;;29.40;36.70;;;;;;4953477;29;20503;-70
2022/05/07 12:05:52;;;;;;;3.90;3.50;;;28.70;37.40;;;;;;4950918;28;20524;-70
2022/05/07 12:08:20;;;;;;;4.40;4.10;;;28.30;37.30;;;;;;4952967;28;20456;-70
2022/05/07 12:10:50;;;;;;;10.73;4.13;;;27.30;37.70;;;;;;4958250;28;20942;-70
2022/05/07 12:13:18;;;;;;;4.90;3.43;;;27.20;38.60;;;;;;4950341;28;20460;-69
2022/05/07 12:18:29;;;;;;;3.63;3.43;;;27.10;39.20;;;;;;4950632;28;20989;-70
2022/05/07 12:20:56;;;;;;;4.10;3.80;;;28.30;38.50;;;;;;4953129;29;20441;-70
2022/05/07 12:31:50;;;;;;;3.80;3.60;;;32.70;35.30;;;;;;4953062;29;20491;-70
2022/05/07 12:34:16;;;;;;;3.80;3.17;;;34.70;33.80;;;;;;4953938;29;20440;-70
2022/05/07 12:36:41;;;;;;;4.00;3.60;;;35.90;32.70;;;;;;4952286;29;20451;-69
2022/05/07 12:39:07;;;;;;;5.27;4.77;;;33.60;34.10;;;;;;4953405;28;20301;-69
2022/05/07 12:41:32;;;;;;;4.40;4.00;;;31.80;36.20;;;;;;4955077;28;20268;-69
2022/05/07 12:44:01;;;;;;;5.27;3.20;;;31.10;36.40;;;;;;4953697;28;20173;-70
2022/05/07 12:46:27;;;;;;;5.27;3.63;;;30.10;37.30;;;;;;4952936;28;20272;-70
2022/05/07 12:48:55;;;;;;;4.10;3.80;;;29.30;37.60;;;;;;4950990;28;20619;-70
2022/05/07 12:51:21;;;;;;;3.43;3.13;;;28.50;38.30;;;;;;4954877;28;20199;-70
2022/05/07 12:53:46;;;;;;;3.60;3.27;;;29.20;38.20;;;;;;4951924;29;20448;-70
2022/05/07 12:56:12;;;;;;;4.07;3.67;;;31.40;37.10;;;;;;4952466;29;20197;-73
2022/05/07 12:58:38;;;;;;;4.63;3.20;;;34.20;34.80;;;;;;4952714;28;20227;-71
2022/05/07 13:01:03;;;;;;;3.43;3.13;;;35.10;33.40;;;;;;4953901;28;20177;-71
2022/05/07 13:03:29;;;;;;;3.70;3.40;;;35.00;32.80;;;;;;4953024;28;20244;-69
2022/05/07 13:05:55;;;;;;;4.77;3.60;;;32.30;34.40;;;;;;4952723;28;20196;-69
2022/05/07 13:08:20;;;;;;;4.17;3.80;;;31.80;34.90;;;;;;4948507;28;20204;-72
2022/05/07 13:10:46;;;;;;;4.33;3.93;;;33.00;34.70;;;;;;4955450;28;20185;-70
2022/05/07 13:13:12;;;;;;;4.07;3.70;;;34.60;33.10;;;;;;4952677;29;20185;-70
2022/05/07 13:15:38;;;;;;;3.53;3.33;;;35.50;33.20;;;;;;4951645;28;20675;-70
2022/05/07 13:18:04;;;;;;;4.57;3.30;;;37.80;31.00;;;;;;4953612;28;20201;-70
2022/05/07 13:20:30;;;;;;;4.23;3.60;;;38.80;29.90;;;;;;4952035;28;20479;-70
2022/05/07 13:22:56;;;;;;;4.40;2.87;;;37.60;30.00;;;;;;4954223;28;20185;-70
2022/05/07 13:25:25;;;;;;;3.13;2.93;;;37.50;30.60;;;;;;4951905;28;20443;-70
2022/05/07 13:27:51;;;;;;;4.07;3.70;;;36.00;31.10;;;;;;4951428;28;20219;-69